Avondale, Louisiana
Current Conditions -  °F | °C
As of 7:53 AM on Saturday 01 Nov 2014 (Local Time) from KMSY Reporting Station
Few Clouds Few Clouds  
Wind Chill:   Ceiling: Unl
Heat Index:   Visibility: 10mi
Dew Point: -4°   Wind: 24mph
Humidity: 42%   Direction: 30°NNE
Pressure: 30.33"   Gusts: 32mph
Location:  29.9137°N, 90.2078°W
Report Text: KMSY 011253Z 03021G28KT 10SM FEW250 08/M04 A3033 RMK AO2 PK WND 03029/1156 SLP272 T00831039
Loading
Personal Weather Stations






























Interactive Weather Map
Tropical Storm Tracking
New forecast layout! Learn more

10-Day Weather Forecast

Advertisements
Track Severe Weather on mobile